Flag for India

Past Weather in 20°35'37.2"N, 78°57'46.3"E, India — Yesterday and Last 2 Weeks

Currently: 77 °F. Passing clouds. (Weather station: Nagpur Sonegaon, India). See more current weather

Past Weather in 20°35'37.2"N, 78°57'46.3"E — Graph

°F

20°35'37.2"N, 78°57'46.3"E Temperature Yesterday

Maximum temperature yesterday: 95 °F (at 2:00 pm)
Minimum temperature yesterday: 73 °F (at 3:30 am)
Average temperature yesterday: 84 °F

High & Low Weather Summary for the Past Weeks

 TemperatureHumidityPressure
High106 °F (Mar 29, 4:30 pm)69% (Apr 11, 7:00 am)30.01 "Hg (Apr 11, 7:00 am)
Low66 °F (Mar 28, 6:30 am)6% (Apr 5, 2:00 pm)29.59 "Hg (Mar 31, 4:00 pm)
Average90 °F24%29.78 "Hg
* Reported Mar 28 5:30 am — Apr 12 5:30 am, 20°35'37.2"N, 78°57'46.3"E. Weather by CustomWeather, © 2021

Note: Actual official high and low records may vary slightly from our data, if they occured in-between our weather recording intervals... More about our weather records

20°35'37.2"N, 78°57'46.3"E Weather History for the Previous 24 Hours

Scroll right to see more
 ConditionsComfort  
Time TempWeatherWind HumidityBarometerVisibility
5:30 am
Mon, Apr 12
77 °FHaze.3 mph39%29.95 "Hg2 mi
4:30 am77 °FHaze.7 mph39%29.95 "Hg2 mi
3:30 am79 °FHaze.8 mph39%29.95 "Hg2 mi
2:30 am81 °FHaze.5 mph39%29.95 "Hg2 mi
1:30 am75 °FHaze.2 mph61%29.92 "Hg2 mi
12:30 am77 °FHaze.No wind57%29.92 "Hg2 mi
11:30 pm
Sun, Apr 11
79 °FPassing clouds.3 mph58%29.95 "Hg2 mi
11:00 pm79 °FPassing clouds.3 mph58%29.95 "Hg2 mi
10:30 pm82 °FPassing clouds.3 mph48%29.95 "Hg2 mi
10:00 pm82 °FPassing clouds.3 mph45%29.95 "Hg2 mi
9:30 pm84 °FPassing clouds.3 mph48%29.95 "Hg2 mi
9:00 pm84 °FPassing clouds.3 mph45%29.92 "Hg2 mi
8:30 pm84 °FPassing clouds.7 mph45%29.92 "Hg2 mi
8:00 pm82 °FPassing clouds.2 mph48%29.92 "Hg2 mi
7:30 pm86 °FPassing clouds.2 mph43%29.89 "Hg2 mi
7:00 pm86 °FHaze.2 mph43%29.89 "Hg2 mi
6:30 pm95 °FHaze.5 mph32%29.86 "Hg2 mi
6:00 pm95 °FHaze.2 mph28%29.86 "Hg2 mi
5:30 pm95 °FHaze.3 mph25%29.86 "Hg2 mi
5:00 pm95 °FHaze.3 mph25%29.86 "Hg2 mi
4:30 pm95 °FScattered clouds.3 mph25%29.86 "Hg2 mi
4:00 pm95 °FScattered clouds.6 mph25%29.86 "Hg2 mi
3:00 pm95 °FScattered clouds.6 mph26%29.89 "Hg2 mi
2:30 pm95 °FScattered clouds.8 mph28%29.89 "Hg2 mi
2:00 pm95 °FScattered clouds.6 mph30%29.89 "Hg2 mi
1:30 pm91 °FScattered clouds.5 mph34%29.92 "Hg2 mi
1:00 pm91 °FScattered clouds.8 mph34%29.95 "Hg2 mi
12:30 pm86 °FScattered clouds.7 mph40%29.98 "Hg2 mi
12:00 pm84 °FBroken clouds.3 mph43%29.98 "Hg2 mi
11:30 am84 °FBroken clouds.6 mph43%30.01 "Hg2 mi
11:00 am82 °FBroken clouds.6 mph48%30.01 "Hg2 mi
10:30 am82 °FBroken clouds.3 mph48%30.01 "Hg2 mi
10:00 am81 °FBroken clouds.3 mph51%30.01 "Hg2 mi
9:30 am79 °FBroken clouds.No wind54%30.01 "Hg2 mi
9:00 am79 °FBroken clouds.3 mph54%30.01 "Hg2 mi
8:30 am79 °FScattered clouds.3 mph54%29.98 "Hg2 mi
8:00 am79 °FScattered clouds.5 mph54%29.98 "Hg2 mi
7:30 am77 °FScattered clouds.3 mph57%29.98 "Hg2 mi
7:00 am73 °FScattered clouds.2 mph69%29.95 "Hg1 mi
6:30 am73 °FScattered clouds.No wind65%29.95 "Hg1 mi
6:00 am73 °FPassing clouds.No wind65%29.95 "Hg1 mi
Weather by CustomWeather, © 2021

See weather overview